Time;durP1;ratioP1;P1;durP2;ratioP2;P2;SDS_P1;SDS_P2;PMS_P1;PMS_P2;Temp;Humidity;BMP_temperature;BMP_pressure;BME280_temperature;BME280_humidity;BME280_pressure;Samples;Min_cycle;Max_cycle;Signal;HPM_P1;HPM_P2
2022/08/07 00:01:18;;;;;;;;;3.00;3.00;;;;;23.94;33.99;102136.97;5056738;28;45316;-72
2022/08/07 00:03:43;;;;;;;;;3.00;2.00;;;;;23.93;33.99;102133.38;5039257;28;45646;-72
2022/08/07 00:06:09;;;;;;;;;2.00;2.00;;;;;23.91;34.02;102132.50;5056716;28;46571;-72
2022/08/07 00:08:35;;;;;;;;;4.33;2.00;;;;;23.87;34.14;102138.94;5056136;28;67577;-73
2022/08/07 00:11:02;;;;;;;;;2.33;2.33;;;;;23.81;34.35;102136.38;5055656;28;45426;-72
2022/08/07 00:13:27;;;;;;;;;3.00;3.00;;;;;23.77;34.38;102134.66;5057370;28;45276;-71
2022/08/07 00:15:54;;;;;;;;;3.00;3.00;;;;;23.74;34.66;102132.91;5056241;28;45702;-71
2022/08/07 00:18:21;;;;;;;;;3.67;2.00;;;;;23.68;34.30;102119.56;5056902;28;45235;-72
2022/08/07 00:20:48;;;;;;;;;3.00;3.00;;;;;23.68;34.40;102127.66;5055490;28;45382;-73
2022/08/07 00:23:13;;;;;;;;;2.00;2.00;;;;;23.62;35.12;102130.47;5057223;28;45228;-73
2022/08/07 00:25:39;;;;;;;;;2.00;2.00;;;;;23.57;34.73;102132.38;5056235;28;45739;-73
2022/08/07 00:28:04;;;;;;;;;4.00;3.00;;;;;23.52;34.51;102126.19;5056034;28;61439;-73
2022/08/07 00:30:29;;;;;;;;;2.67;2.67;;;;;23.50;34.67;102118.16;5037921;28;56148;-73
2022/08/07 00:32:56;;;;;;;;;4.00;2.67;;;;;23.48;35.00;102116.41;5056181;28;55030;-71
2022/08/07 00:35:21;;;;;;;;;3.00;3.00;;;;;23.45;35.15;102113.78;5056586;28;45672;-73
2022/08/07 00:37:47;;;;;;;;;2.00;2.00;;;;;23.45;34.94;102122.75;5055317;28;45419;-72
2022/08/07 00:40:14;;;;;;;;;3.00;3.00;;;;;23.42;35.27;102117.44;5056320;28;45280;-71
2022/08/07 00:42:40;;;;;;;;;2.00;2.00;;;;;23.36;35.45;102116.69;5038301;28;45365;-73
2022/08/07 00:45:06;;;;;;;;;2.67;2.67;;;;;23.32;35.77;102114.97;5056328;28;46558;-73
2022/08/07 00:47:32;;;;;;;;;2.33;2.33;;;;;23.26;35.70;102113.28;5056031;28;45343;-73
2022/08/07 00:49:57;;;;;;;;;2.67;2.00;;;;;23.20;35.67;102106.22;5055357;28;65282;-72
2022/08/07 00:52:23;;;;;;;;;5.00;3.00;;;;;23.17;35.35;102100.91;5056865;28;45360;-73
2022/08/07 00:54:49;;;;;;;;;3.00;3.00;;;;;23.16;35.86;102104.50;5056164;28;46429;-73
2022/08/07 00:57:15;;;;;;;;;2.33;2.33;;;;;23.17;35.78;102105.38;5039880;28;45361;-73
2022/08/07 00:59:40;;;;;;;;;2.00;2.00;;;;;23.15;35.85;102108.13;5058600;28;45335;-73
2022/08/07 01:02:07;;;;;;;;;3.33;3.33;;;;;23.14;36.14;102094.69;5057838;28;61957;-73
2022/08/07 01:04:33;;;;;;;;;2.33;2.33;;;;;23.08;36.31;102084.94;5059416;28;46886;-71
2022/08/07 01:06:58;;;;;;;;;5.00;2.00;;;;;23.08;35.91;102093.03;5059038;28;62648;-73
2022/08/07 01:09:24;;;;;;;;;4.00;3.00;;;;;23.05;36.00;102084.09;5058565;28;45334;-73
2022/08/07 01:11:51;;;;;;;;;2.00;2.00;;;;;23.06;36.15;102088.56;5058603;28;45625;-72
2022/08/07 01:14:17;;;;;;;;;3.00;1.67;;;;;23.04;36.48;102085.91;5041379;28;47749;-73
2022/08/07 01:16:43;;;;;;;;;2.00;2.00;;;;;22.98;36.31;102083.34;5041386;28;45495;-73
2022/08/07 01:19:09;;;;;;;;;3.00;3.00;;;;;22.97;36.64;102086.97;5058669;28;58602;-73
2022/08/07 01:21:34;;;;;;;;;3.00;3.00;;;;;22.91;36.61;102087.09;5058263;28;45387;-72
2022/08/07 01:24:00;;;;;;;;;2.33;2.33;;;;;22.89;36.70;102084.41;5058709;28;68283;-73
2022/08/07 01:26:26;;;;;;;;;2.00;2.00;;;;;22.88;36.78;102082.66;5058128;28;45510;-73
2022/08/07 01:28:52;;;;;;;;;3.00;3.00;;;;;22.85;36.78;102088.06;5059463;28;45406;-73
2022/08/07 01:31:19;;;;;;;;;3.00;3.00;;;;;22.84;36.77;102086.28;5058209;28;45657;-73
2022/08/07 01:33:47;;;;;;;;;3.00;3.00;;;;;22.83;37.29;102083.63;5059225;28;45932;-73
2022/08/07 01:36:12;;;;;;;;;3.00;3.00;;;;;22.79;37.24;102079.22;5058253;28;45416;-72
2022/08/07 01:38:38;;;;;;;;;3.33;3.33;;;;;22.73;37.10;102077.53;5058458;28;57042;-72
2022/08/07 01:41:05;;;;;;;;;2.00;2.00;;;;;22.73;37.21;102088.28;5059670;28;45334;-71
2022/08/07 01:43:32;;;;;;;;;3.33;2.33;;;;;22.68;37.23;102088.38;5061165;28;45966;-73
2022/08/07 01:45:58;;;;;;;;;3.00;3.00;;;;;22.65;37.47;102090.25;5062713;28;45349;-72
2022/08/07 01:48:24;;;;;;;;;2.33;2.33;;;;;;;;5060142;28;64962;-71
2022/08/07 01:50:53;;;;;;;;;3.33;2.00;;;;;22.62;37.70;102085.81;5059254;28;45404;-73
2022/08/07 01:53:20;;;;;;;;;3.00;3.00;;;;;22.62;37.87;102085.81;5057415;28;46190;-72
2022/08/07 01:55:50;;;;;;;;;3.33;3.00;;;;;22.60;37.91;102084.09;5057957;28;45410;-72
2022/08/07 01:58:19;;;;;;;;;2.67;2.67;;;;;22.59;37.60;102085.00;5041004;28;45415;-72
2022/08/07 02:00:45;;;;;;;;;3.00;3.00;;;;;22.57;37.83;102081.44;5040823;28;45617;-72
2022/08/07 02:03:13;;;;;;;;;5.00;3.33;;;;;22.57;37.95;102086.81;5057392;28;45525;-72
2022/08/07 02:05:50;;;;;;;;;4.00;3.00;;;;;22.58;38.10;102094.84;5040686;28;45451;-73
2022/08/07 02:08:18;;;;;;;;;3.00;3.00;;;;;22.54;37.89;102085.09;5057487;28;45296;-71
2022/08/07 02:10:44;;;;;;;;;2.00;2.00;;;;;22.55;38.25;102088.66;5057620;28;45410;-73
2022/08/07 02:13:11;;;;;;;;;3.00;3.00;;;;;22.51;38.29;102086.94;5058656;28;45727;-72
2022/08/07 02:15:38;;;;;;;;;4.00;2.00;;;;;22.49;38.53;102089.66;5057093;28;45454;-71
2022/08/07 02:18:05;;;;;;;;;3.00;3.00;;;;;22.45;38.59;102090.63;5057545;28;45421;-72
2022/08/07 02:20:32;;;;;;;;;3.00;1.67;;;;;22.42;38.86;102093.38;5040201;28;45438;-71
2022/08/07 02:23:00;;;;;;;;;3.00;3.00;;;;;22.39;38.67;102093.44;5058453;28;46581;-72
2022/08/07 02:25:26;;;;;;;;;2.00;2.00;;;;;22.39;38.71;102094.31;5056844;28;45367;-71
2022/08/07 02:27:53;;;;;;;;;3.00;2.00;;;;;22.35;39.00;102092.59;5040606;28;45513;-72
2022/08/07 02:30:19;;;;;;;;;3.00;3.00;;;;;22.26;38.94;102091.88;5039611;28;59646;-71
2022/08/07 02:32:46;;;;;;;;;2.00;2.00;;;;;22.29;38.98;102095.41;5058293;28;45857;-73
2022/08/07 02:35:11;;;;;;;;;2.00;2.00;;;;;22.27;39.21;102089.16;5058222;28;45199;-73
2022/08/07 02:37:39;;;;;;;;;2.00;2.00;;;;;22.23;39.17;102087.44;5057733;28;60403;-73
2022/08/07 02:40:07;;;;;;;;;2.00;2.00;;;;;22.22;39.26;102088.34;5040378;28;45296;-73
2022/08/07 02:42:33;;;;;;;;;2.00;2.00;;;;;22.17;39.65;102071.41;5058099;28;46281;-71
2022/08/07 02:44:59;;;;;;;;;2.33;2.33;;;;;22.16;39.46;102083.97;5056756;28;45332;-72
2022/08/07 02:47:25;;;;;;;;;2.00;2.00;;;;;22.14;39.47;102080.41;5057913;28;45212;-72
2022/08/07 02:49:51;;;;;;;;;2.00;2.00;;;;;22.13;39.89;102084.00;5040069;28;45400;-72
2022/08/07 02:52:29;;;;;;;;;3.00;3.00;;;;;22.09;40.01;102087.63;5057965;28;46098;-71
2022/08/07 02:55:00;;;;;;;;;3.00;3.00;;;;;22.07;40.24;102077.81;5039854;28;45565;-71
2022/08/07 02:57:25;;;;;;;;;2.00;2.00;;;;;22.05;40.04;102079.63;5040072;28;45273;-73
2022/08/07 02:59:51;;;;;;;;;5.00;3.00;;;;;22.00;40.28;102074.34;5057621;28;53315;-71
2022/08/07 03:02:17;;;;;;;;;2.33;2.33;;;;;21.96;40.36;102078.88;5056413;28;46930;-72
2022/08/07 03:04:44;;;;;;;;;5.67;3.00;;;;;21.96;40.48;102078.00;5039827;28;45393;-73
2022/08/07 03:07:10;;;;;;;;;2.00;2.00;;;;;21.92;40.17;102071.78;5058038;28;45517;-72
2022/08/07 03:09:36;;;;;;;;;4.00;3.00;;;;;21.93;40.62;102080.72;5056583;28;45498;-72
2022/08/07 03:12:04;;;;;;;;;2.33;2.33;;;;;21.91;40.72;102064.63;5055806;28;68538;-70
2022/08/07 03:14:32;;;;;;;;;2.33;2.33;;;;;21.89;40.70;102079.91;5039503;28;45462;-73
2022/08/07 03:16:58;;;;;;;;;2.00;2.00;;;;;21.85;40.95;102070.09;5057379;28;45462;-70
2022/08/07 03:19:24;;;;;;;;;2.00;2.00;;;;;21.80;40.68;102066.59;5056163;28;56380;-71
2022/08/07 03:21:50;;;;;;;;;3.00;3.00;;;;;21.79;40.93;102072.00;5039688;28;45525;-72
2022/08/07 03:24:15;;;;;;;;;2.67;2.00;;;;;21.78;41.17;102070.22;5039736;28;45431;-72
2022/08/07 03:26:42;;;;;;;;;2.00;2.00;;;;;21.74;41.22;102077.44;5056833;28;61088;-72
2022/08/07 03:29:09;;;;;;;;;4.00;2.00;;;;;21.70;41.34;102073.91;5057587;28;45408;-72
2022/08/07 03:31:35;;;;;;;;;2.00;2.00;;;;;21.64;41.38;102068.63;5056054;28;46949;-71
2022/08/07 03:34:01;;;;;;;;;2.00;2.00;;;;;21.62;41.70;102067.75;5056272;28;45324;-72
2022/08/07 03:36:28;;;;;;;;;3.00;3.00;;;;;21.60;41.53;102069.59;5039451;28;45335;-71
2022/08/07 03:38:58;;;;;;;;;2.67;2.33;;;;;21.57;42.02;102068.72;5057562;28;45407;-71
2022/08/07 03:41:24;;;;;;;;;3.00;1.33;;;;;21.57;42.03;102079.47;5038859;28;46998;-70
2022/08/07 03:43:50;;;;;;;;;2.00;2.00;;;;;21.55;42.15;102075.94;5055531;28;45239;-73
2022/08/07 03:46:16;;;;;;;;;2.67;2.67;;;;;21.52;42.10;102079.59;5057002;28;45261;-71
2022/08/07 03:48:41;;;;;;;;;2.00;2.00;;;;;21.50;42.37;102084.06;5056745;28;57271;-70
2022/08/07 03:51:07;;;;;;;;;1.67;1.67;;;;;21.49;42.33;102087.66;5057055;28;46272;-70
2022/08/07 03:53:33;;;;;;;;;2.33;2.33;;;;;21.43;42.48;102064.47;5057018;28;45324;-71
2022/08/07 03:55:59;;;;;;;;;2.33;2.33;;;;;21.47;42.36;102084.13;5056350;28;45343;-71
2022/08/07 03:58:25;;;;;;;;;3.00;3.00;;;;;21.46;42.39;102074.25;5039167;28;45286;-72
2022/08/07 04:00:52;;;;;;;;;3.00;3.00;;;;;21.47;42.68;102080.56;5055704;28;46243;-71
2022/08/07 04:03:18;;;;;;;;;2.00;2.00;;;;;21.45;42.47;102078.75;5055850;28;45327;-70
2022/08/07 04:05:44;;;;;;;;;3.00;2.00;;;;;21.41;42.53;102076.13;5057154;28;45430;-71
2022/08/07 04:08:11;;;;;;;;;4.33;4.00;;;;;21.38;43.31;102069.00;5038200;28;63311;-73
2022/08/07 04:10:36;;;;;;;;;3.67;3.00;;;;;21.34;42.78;102064.59;5038862;28;46607;-72
2022/08/07 04:13:02;;;;;;;;;3.67;2.33;;;;;21.33;43.17;102068.19;5055579;28;45750;-71
2022/08/07 04:15:29;;;;;;;;;3.00;3.00;;;;;21.34;43.02;102067.28;5056145;28;59374;-72
2022/08/07 04:17:54;;;;;;;;;3.00;3.00;;;;;21.34;43.28;102067.28;5056651;28;55200;-72
2022/08/07 04:20:20;;;;;;;;;2.67;2.67;;;;;21.33;43.13;102068.19;5055674;28;69745;-71
2022/08/07 04:22:48;;;;;;;;;3.00;2.00;;;;;21.33;43.45;102067.31;5038584;28;45620;-71
2022/08/07 04:25:13;;;;;;;;;3.00;3.00;;;;;21.27;43.78;102070.94;5057107;28;45958;-71
2022/08/07 04:27:40;;;;;;;;;3.00;3.00;;;;;21.24;43.71;102070.97;5056177;28;57989;-72
2022/08/07 04:30:06;;;;;;;;;6.00;2.33;;;;;21.24;43.65;102080.81;5056564;28;46393;-72
2022/08/07 04:32:32;;;;;;;;;2.00;2.00;;;;;21.15;44.03;102063.94;5025188;28;45969;-73
2022/08/07 04:34:58;;;;;;;;;3.00;2.00;;;;;21.22;43.73;102077.28;5059148;28;45453;-72
2022/08/07 04:37:24;;;;;;;;;4.33;2.67;;;;;21.20;43.86;102069.25;5058673;28;54850;-72
2022/08/07 04:39:49;;;;;;;;;5.00;3.00;;;;;21.22;43.84;102069.22;5059984;28;45920;-71
2022/08/07 04:42:14;;;;;;;;;4.67;3.00;;;;;21.21;44.24;102075.50;5059548;28;60769;-71
2022/08/07 04:44:40;;;;;;;;;2.33;2.33;;;;;21.16;44.03;102067.50;5059905;28;45385;-71
2022/08/07 04:47:10;;;;;;;;;4.67;2.33;;;;;21.16;43.92;102075.56;5059987;28;45547;-72
2022/08/07 04:49:41;;;;;;;;;2.67;2.67;;;;;21.13;44.41;102079.16;5059903;28;45623;-71
2022/08/07 04:52:42;;;;;;;;;3.67;2.00;;;;;21.12;44.47;102082.75;5059999;28;45350;-72
2022/08/07 04:55:45;;;;;;;;;3.33;2.00;;;;;21.09;44.60;102084.59;5058831;28;45344;-73
2022/08/07 04:58:25;;;;;;;;;1.33;1.33;;;;;21.07;44.56;102091.78;5025076;28;45619;-71
2022/08/07 05:00:58;;;;;;;;;3.00;2.67;;;;;21.02;44.58;102082.88;5058591;28;45773;-72
2022/08/07 05:03:33;;;;;;;;;1.67;1.67;;;;;21.02;45.03;102085.56;5059557;28;45186;-70
2022/08/07 05:06:06;;;;;;;;;2.33;2.33;;;;;20.99;45.30;102093.69;5058649;28;45462;-73
2022/08/07 05:08:41;;;;;;;;;4.00;2.33;;;;;21.02;45.39;102096.31;5058804;28;45576;-70
2022/08/07 05:11:13;;;;;;;;;2.33;2.33;;;;;21.00;44.99;102103.53;5041647;28;45675;-72
2022/08/07 05:13:45;;;;;;;;;2.67;2.67;;;;;21.00;45.38;102100.84;5058427;28;45328;-72
2022/08/07 05:16:13;;;;;;;;;3.67;3.67;;;;;20.96;45.48;102096.41;5058309;28;45320;-71
2022/08/07 05:18:47;;;;;;;;;1.33;1.33;;;;;20.96;45.96;102104.47;5042039;28;45589;-70
2022/08/07 05:21:13;;;;;;;;;3.33;2.00;;;;;20.97;46.19;102108.91;5059029;28;45390;-71
2022/08/07 05:23:43;;;;;;;;;3.00;3.00;;;;;20.92;46.39;102112.53;5059565;28;45644;-71
2022/08/07 05:26:18;;;;;;;;;3.67;3.67;;;;;20.92;46.27;102107.16;5058363;28;45446;-72
2022/08/07 05:28:44;;;;;;;;;2.33;2.00;;;;;20.96;45.88;102128.63;5058135;28;45211;-72
2022/08/07 05:31:11;;;;;;;;;2.33;2.00;;;;;20.95;46.08;102116.09;5041400;28;46682;-71
2022/08/07 05:33:37;;;;;;;;;3.00;3.00;;;;;20.96;46.71;102123.25;5058006;28;45284;-72
2022/08/07 05:36:04;;;;;;;;;4.00;2.00;;;;;20.97;46.79;102119.66;5058000;28;51141;-71
2022/08/07 05:38:29;;;;;;;;;3.00;3.00;;;;;20.97;46.71;102115.16;5058003;28;45558;-73
2022/08/07 05:40:55;;;;;;;;;3.33;2.33;;;;;20.96;46.95;102121.44;5058565;28;67384;-71
2022/08/07 05:43:20;;;;;;;;;4.00;2.67;;;;;20.95;46.38;102119.69;5056155;28;45353;-70
2022/08/07 05:45:47;;;;;;;;;2.00;2.00;;;;;20.95;47.29;102121.47;5040043;28;66216;-73
2022/08/07 05:48:13;;;;;;;;;6.67;3.00;;;;;20.98;46.81;102121.44;5057895;28;55469;-71
2022/08/07 05:50:40;;;;;;;;;2.00;2.00;;;;;20.98;47.11;102116.06;5057727;28;45587;-71
2022/08/07 05:53:05;;;;;;;;;2.67;2.00;;;;;21.03;46.91;102116.88;5057562;28;45312;-71
2022/08/07 05:55:33;;;;;;;;;3.67;2.00;;;;;21.02;46.95;102121.38;5059417;28;45228;-72
2022/08/07 05:57:59;;;;;;;;;2.33;2.33;;;;;21.05;47.37;102115.97;5042309;28;46525;-72
2022/08/07 06:00:26;;;;;;;;;3.67;2.00;;;;;21.08;47.06;102121.28;5057652;28;45933;-72
2022/08/07 06:02:52;;;;;;;;;4.67;2.00;;;;;21.14;46.70;102125.72;5057468;28;45458;-70
2022/08/07 06:05:19;;;;;;;;;2.00;2.00;;;;;21.15;46.71;102127.50;5058123;28;45391;-71
2022/08/07 06:07:45;;;;;;;;;2.33;2.00;;;;;21.20;46.47;102120.28;5057906;28;45350;-71
2022/08/07 06:10:11;;;;;;;;;2.00;2.00;;;;;21.22;46.84;102129.19;5057498;28;47523;-71
2022/08/07 06:12:36;;;;;;;;;2.00;2.00;;;;;21.24;46.91;102126.50;5057487;28;45406;-72
2022/08/07 06:15:02;;;;;;;;;2.00;2.00;;;;;21.26;47.19;102122.88;5058948;28;45461;-72
2022/08/07 06:17:27;;;;;;;;;2.67;2.67;;;;;21.28;46.78;102131.81;5058265;28;45558;-72
2022/08/07 06:19:53;;;;;;;;;3.33;2.00;;;;;21.29;46.84;102122.84;5056323;28;69500;-72
2022/08/07 06:22:19;;;;;;;;;2.00;2.00;;;;;21.30;46.62;102124.63;5040337;28;45489;-71
2022/08/07 06:24:45;;;;;;;;;2.00;2.00;;;;;21.35;46.78;102128.16;5057671;28;45330;-71
2022/08/07 06:27:22;;;;;;;;;4.33;3.33;;;;;21.38;46.81;102128.13;5040357;28;45307;-71
2022/08/07 06:29:47;;;;;;;;;2.00;2.00;;;;;21.36;46.98;102115.59;5058454;28;45769;-72
2022/08/07 06:32:12;;;;;;;;;3.00;3.00;;;;;21.44;46.88;102128.03;5057962;28;57019;-71
2022/08/07 06:34:38;;;;;;;;;2.33;2.33;;;;;21.43;47.13;102118.22;5057809;28;63202;-72
2022/08/07 06:37:03;;;;;;;;;2.33;2.33;;;;;21.48;46.87;102128.00;5057964;28;59806;-72
2022/08/07 06:39:30;;;;;;;;;3.67;2.00;;;;;21.51;46.58;102131.53;5057181;28;46221;-72
2022/08/07 06:42:07;;;;;;;;;2.00;2.00;;;;;21.53;46.65;102120.78;5056898;28;45358;-71
2022/08/07 06:44:33;;;;;;;;;2.00;2.00;;;;;21.55;46.89;102124.31;5058158;28;45404;-73
2022/08/07 06:46:59;;;;;;;;;3.00;2.00;;;;;21.58;46.94;102126.97;5058287;28;59593;-73
2022/08/07 06:49:24;;;;;;;;;3.67;2.00;;;;;21.60;46.51;102128.72;5040483;28;46440;-73
2022/08/07 06:51:52;;;;;;;;;2.00;2.00;;;;;21.62;46.67;102129.56;5056805;28;45385;-72
2022/08/07 06:54:18;;;;;;;;;5.00;3.67;;;;;21.64;46.48;102118.81;5055876;28;45205;-73
2022/08/07 06:56:46;;;;;;;;;2.67;1.67;;;;;21.67;46.70;102127.72;5058139;28;45592;-72
2022/08/07 06:59:18;;;;;;;;;4.00;2.33;;;;;21.70;46.41;102125.00;5056883;28;46768;-72
2022/08/07 07:01:44;;;;;;;;;3.33;2.00;;;;;21.73;46.63;102125.84;5039761;28;45377;-70
2022/08/07 07:04:10;;;;;;;;;3.00;3.00;;;;;21.74;46.20;102125.84;5058227;28;45388;-71
2022/08/07 07:06:35;;;;;;;;;1.67;1.67;;;;;21.75;46.39;102126.72;5040151;28;45596;-71
2022/08/07 07:09:20;;;;;;;;;2.00;2.00;;;;;21.83;46.59;102136.44;5057657;28;46425;-72
2022/08/07 07:11:56;;;;;;;;;2.00;2.00;;;;;21.83;46.22;102117.63;5057885;28;45292;-73
2022/08/07 07:14:24;;;;;;;;;1.00;1.00;;;;;21.90;46.60;102129.19;5056793;28;45323;-71
2022/08/07 07:16:52;;;;;;;;;1.33;1.33;;;;;21.92;46.59;102127.34;5056546;28;45644;-71
2022/08/07 07:19:31;;;;;;;;;1.67;1.33;;;;;21.95;46.53;102125.53;5057234;28;46617;-72
2022/08/07 07:21:57;;;;;;;;;2.00;2.00;;;;;22.03;46.70;102127.19;5039506;28;45744;-72
2022/08/07 07:24:22;;;;;;;;;2.00;2.00;;;;;22.04;46.49;102120.91;5039670;28;45308;-71
2022/08/07 07:26:50;;;;;;;;;2.33;1.67;;;;;22.07;46.62;102119.06;5056273;28;45617;-72
2022/08/07 07:29:17;;;;;;;;;2.00;2.00;;;;;22.11;46.33;102118.13;5056101;28;46818;-71
2022/08/07 07:31:46;;;;;;;;;1.67;1.67;;;;;22.20;46.34;102125.13;5039756;28;45347;-71
2022/08/07 07:34:15;;;;;;;;;1.00;1.00;;;;;22.23;46.11;102120.59;5057620;28;45280;-71
2022/08/07 07:36:43;;;;;;;;;2.00;2.00;;;;;22.26;46.25;102122.34;5056366;28;45474;-71
2022/08/07 07:39:09;;;;;;;;;2.67;1.00;;;;;22.31;45.85;102116.88;5039700;28;46808;-73
2022/08/07 07:41:35;;;;;;;;;2.00;2.00;;;;;22.34;46.02;102116.84;5056568;28;63262;-71
2022/08/07 07:44:01;;;;;;;;;2.00;2.00;;;;;22.36;45.77;102123.09;5056384;28;61579;-71
2022/08/07 07:46:30;;;;;;;;;2.00;2.00;;;;;22.39;45.44;102118.53;5055691;28;45602;-71
2022/08/07 07:48:56;;;;;;;;;1.00;1.00;;;;;22.40;45.88;102112.25;5038997;28;46513;-70
2022/08/07 07:51:21;;;;;;;;;2.00;2.00;;;;;22.43;45.80;102114.00;5057059;28;45415;-73
2022/08/07 07:53:48;;;;;;;;;2.00;0.33;;;;;22.46;45.48;102117.50;5055407;28;57709;-71
2022/08/07 07:56:13;;;;;;;;;2.00;2.00;;;;;22.52;45.48;102113.81;5038527;28;59100;-73
2022/08/07 07:58:39;;;;;;;;;1.67;1.67;;;;;22.51;45.14;102109.34;5057165;28;46383;-72
2022/08/07 08:01:07;;;;;;;;;1.00;1.00;;;;;22.58;45.12;102120.88;5054848;28;68792;-72
2022/08/07 08:03:34;;;;;;;;;3.00;1.00;;;;;22.63;45.18;102108.22;5056051;28;45418;-72
2022/08/07 08:06:00;;;;;;;;;1.00;1.00;;;;;22.66;45.03;102116.28;5056858;28;45310;-71
2022/08/07 08:08:28;;;;;;;;;2.00;2.00;;;;;22.68;44.81;102109.03;5057031;28;45696;-71
2022/08/07 08:10:55;;;;;;;;;2.00;2.00;;;;;22.69;44.66;102092.88;5055705;28;45383;-72
2022/08/07 08:13:21;;;;;;;;;1.67;1.00;;;;;22.77;44.88;102100.78;5057185;28;46900;-73
2022/08/07 08:15:47;;;;;;;;;2.00;2.00;;;;;22.80;44.48;102108.81;5055548;28;45568;-71
2022/08/07 08:18:14;;;;;;;;;2.33;1.00;;;;;22.85;44.72;102092.53;5055230;28;63330;-73
2022/08/07 08:20:40;;;;;;;;;2.00;1.00;;;;;22.89;44.77;102097.00;5054601;28;65634;-73
2022/08/07 08:28:41;;;;;;;;;1.00;1.00;;;;;23.05;44.68;102082.28;5041324;28;45528;-73
2022/08/07 08:31:13;;;;;;;;;5.00;2.00;;;;;23.11;44.21;102092.06;5056819;28;45322;-73
2022/08/07 08:33:39;;;;;;;;;2.00;1.00;;;;;23.15;44.13;102096.47;5038761;28;45543;-73
2022/08/07 08:36:07;;;;;;;;;2.00;1.00;;;;;23.16;43.96;102087.44;5055790;28;45321;-73
2022/08/07 08:38:36;;;;;;;;;1.00;1.00;;;;;23.20;43.95;102079.28;5055268;28;46755;-73
2022/08/07 08:41:10;;;;;;;;;2.00;2.00;;;;;23.26;43.75;102084.53;5055476;28;45189;-71
2022/08/07 08:43:38;;;;;;;;;1.00;1.00;;;;;23.33;43.72;102088.00;5055005;28;45398;-71
2022/08/07 08:46:31;;;;;;;;;3.00;1.33;;;;;23.37;43.72;102075.31;5056734;28;45519;-73
2022/08/07 08:51:56;;;;;;;;;2.33;1.00;;;;;23.45;42.79;102074.25;5146299;22;45561;-71
2022/08/07 08:54:27;;;;;;;;;1.67;1.00;;;;;23.45;42.83;102066.16;5013648;28;45473;-72
2022/08/07 08:56:54;;;;;;;;;0.33;0.33;;;;;23.51;42.95;102070.50;5015405;28;45523;-73
2022/08/07 08:59:27;;;;;;;;;1.00;1.00;;;;;23.56;42.07;102073.09;5014221;28;67553;-71
2022/08/07 09:02:07;;;;;;;;;1.00;1.00;;;;;23.60;42.31;102074.81;5016354;28;45336;-70
2022/08/07 09:04:44;;;;;;;;;1.00;1.00;;;;;23.64;41.69;102073.81;5015194;28;45245;-73
2022/08/07 09:07:42;;;;;;;;;2.00;2.00;;;;;23.59;41.69;102056.84;5015346;28;45290;-71
2022/08/07 09:10:43;;;;;;;;;1.00;1.00;;;;;23.72;41.88;102083.53;5014991;28;46223;-71
2022/08/07 09:13:27;;;;;;;;;0.00;0.00;;;;;23.76;41.70;102073.56;4965066;28;45412;-72
2022/08/07 09:16:10;;;;;;;;;2.00;2.00;;;;;23.78;41.45;102069.00;5015833;28;45250;-73
2022/08/07 09:18:42;;;;;;;;;2.00;2.00;;;;;23.83;41.64;102079.69;5016985;28;45493;-71
2022/08/07 09:21:29;;;;;;;;;2.00;2.00;;;;;23.88;41.37;102078.66;5019080;28;45650;-71
2022/08/07 09:24:02;;;;;;;;;2.33;2.00;;;;;23.90;41.18;102071.41;5019200;28;45264;-72
2022/08/07 09:27:09;;;;;;;;;2.00;2.00;;;;;23.98;41.20;102079.31;5018214;28;45364;-72
2022/08/07 09:29:40;;;;;;;;;3.00;3.00;;;;;24.00;41.26;102072.94;5019550;28;45495;-73
2022/08/07 09:32:09;;;;;;;;;2.00;2.00;;;;;24.07;40.53;102073.66;5019086;28;45622;-71
2022/08/07 09:34:46;;;;;;;;;2.00;2.00;;;;;24.11;40.12;102075.38;5018138;28;45360;-71
2022/08/07 09:37:24;;;;;;;;;2.00;2.00;;;;;24.14;39.76;102063.63;5019258;28;45208;-73
2022/08/07 09:39:52;;;;;;;;;4.00;2.00;;;;;24.24;39.35;102070.56;5018289;28;45372;-70
2022/08/07 09:42:55;;;;;;;;;3.00;3.00;;;;;24.29;39.59;102072.22;5001230;28;47830;-73
2022/08/07 09:45:39;;;;;;;;;2.00;2.00;;;;;24.35;39.13;102060.38;5017467;28;45318;-71
2022/08/07 09:48:21;;;;;;;;;3.00;3.00;;;;;24.40;38.74;102063.84;5017850;28;45376;-71
2022/08/07 09:51:02;;;;;;;;;2.00;2.00;;;;;24.47;39.06;102060.06;5026005;28;45389;-71
2022/08/07 09:53:31;;;;;;;;;2.00;2.00;;;;;24.52;39.42;102060.81;5037117;28;46579;-71
2022/08/07 09:56:16;;;;;;;;;3.67;2.00;;;;;24.57;38.60;102058.00;5021068;28;45325;-73
2022/08/07 09:58:44;;;;;;;;;2.67;2.00;;;;;24.67;38.67;102064.03;5039043;28;45315;-73
2022/08/07 10:01:37;;;;;;;;;3.67;3.00;;;;;24.72;37.79;102062.09;5038947;28;45454;-72
2022/08/07 10:04:02;;;;;;;;;3.00;3.00;;;;;24.78;38.16;102061.91;5038509;28;45277;-71
2022/08/07 10:07:02;;;;;;;;;5.00;3.00;;;;;24.80;38.02;102049.22;5038704;28;45229;-72
2022/08/07 10:09:29;;;;;;;;;2.67;2.67;;;;;24.89;37.52;102042.69;5038528;28;45389;-72
2022/08/07 10:12:21;;;;;;;;;2.33;2.33;;;;;24.93;37.99;102041.63;5037737;28;45546;-73
2022/08/07 10:15:10;;;;;;;;;4.00;3.00;;;;;24.99;37.47;102038.78;5037402;28;45557;-71
2022/08/07 10:18:00;;;;;;;;;2.00;2.00;;;;;25.03;38.27;102035.91;5036959;28;45321;-72
2022/08/07 10:20:25;;;;;;;;;4.67;2.33;;;;;25.10;38.60;102030.38;5038543;28;45317;-72
2022/08/07 10:23:19;;;;;;;;;2.00;2.00;;;;;25.16;37.64;102031.06;5038519;28;45300;-71
2022/08/07 10:26:02;;;;;;;;;1.67;1.67;;;;;25.20;37.47;102029.16;5038114;28;46884;-73
2022/08/07 10:28:55;;;;;;;;;2.00;2.00;;;;;25.23;37.36;102023.66;5038344;28;45329;-71
2022/08/07 10:31:48;;;;;;;;;4.00;2.67;;;;;25.30;37.85;102028.84;5038577;28;45232;-71
2022/08/07 10:34:25;;;;;;;;;3.00;3.00;;;;;25.36;37.65;102026.88;5038576;28;45613;-71
2022/08/07 10:36:58;;;;;;;;;3.00;3.00;;;;;25.42;37.72;102021.25;5037915;28;46003;-73
2022/08/07 10:39:26;;;;;;;;;2.67;2.67;;;;;25.47;36.82;102024.72;5047182;28;45334;-71
2022/08/07 10:42:14;;;;;;;;;2.67;2.00;;;;;25.52;36.10;102028.16;5040945;28;45197;-70
2022/08/07 10:45:17;;;;;;;;;2.00;2.00;;;;;25.57;35.86;102024.34;5036737;28;45541;-71
2022/08/07 10:47:51;;;;;;;;;3.00;3.00;;;;;25.60;36.42;102010.72;5036813;28;47540;-72
2022/08/07 10:50:32;;;;;;;;;5.00;3.67;;;;;25.64;35.62;102022.34;5038136;28;45166;-71
2022/08/07 10:53:26;;;;;;;;;4.00;4.00;;;;;25.67;35.99;102010.50;5019881;28;45480;-72
2022/08/07 10:56:03;;;;;;;;;2.67;2.67;;;;;25.72;35.19;102011.25;5029771;28;45538;-71
2022/08/07 10:58:53;;;;;;;;;2.33;2.33;;;;;25.79;34.98;102019.16;5038049;28;46162;-73
2022/08/07 11:02:03;;;;;;;;;2.67;2.67;;;;;25.84;35.25;101997.34;5036993;28;45349;-73
2022/08/07 11:04:51;;;;;;;;;3.00;3.00;;;;;25.90;36.16;101998.97;5027518;28;45311;-72
2022/08/07 11:07:27;;;;;;;;;3.00;3.00;;;;;25.93;35.24;102001.53;5019972;28;45547;-71
2022/08/07 11:10:01;;;;;;;;;6.00;3.00;;;;;26.00;36.24;101995.00;5020317;28;46671;-73
2022/08/07 11:12:36;;;;;;;;;3.00;3.00;;;;;26.05;35.49;101971.38;5037673;28;45304;-71
2022/08/07 11:15:09;;;;;;;;;3.00;3.00;;;;;26.11;35.31;101985.56;5036733;28;45456;-72
2022/08/07 11:17:43;;;;;;;;;3.00;3.00;;;;;26.19;35.41;101978.97;5036154;28;45564;-71
2022/08/07 11:20:34;;;;;;;;;3.33;3.33;;;;;26.25;35.43;101974.22;5036193;28;45837;-73
2022/08/07 11:23:21;;;;;;;;;4.00;4.00;;;;;26.32;34.93;101972.19;5036158;28;45453;-72
2022/08/07 11:25:57;;;;;;;;;3.67;3.67;;;;;26.37;34.72;101975.63;5020343;28;45418;-72
2022/08/07 11:30:54;;;;;;;;;4.00;4.00;;;;;26.48;34.27;101961.72;5062085;22;74455;-72
2022/08/07 11:33:23;;;;;;;;;4.00;3.33;;;;;26.50;34.64;101960.69;5056478;28;45317;-72
2022/08/07 11:36:12;;;;;;;;;3.00;3.00;;;;;26.57;34.30;101964.06;5048789;28;45387;-71
2022/08/07 11:39:02;;;;;;;;;2.33;2.33;;;;;26.65;34.25;101951.13;5012516;28;45598;-72
2022/08/07 11:41:33;;;;;;;;;3.00;3.00;;;;;26.71;33.93;101948.16;5037723;28;46692;-72
2022/08/07 11:44:08;;;;;;;;;4.00;4.00;;;;;26.81;34.35;101956.81;5054485;28;45418;-71
2022/08/07 11:47:04;;;;;;;;;6.00;3.00;;;;;26.86;33.81;101933.13;5023020;28;45515;-72
2022/08/07 11:49:47;;;;;;;;;2.00;2.00;;;;;26.93;33.82;101934.66;5056033;28;45390;-72
2022/08/07 11:52:25;;;;;;;;;4.00;4.00;;;;;27.04;33.81;101945.94;5055915;28;45668;-73
2022/08/07 11:55:17;;;;;;;;;3.00;3.00;;;;;27.14;33.34;101941.94;5048755;28;45415;-72